createdAt,value
2015-09-11T00:02:47.776Z,19.7
2015-09-11T00:07:50.476Z,19.7
2015-09-11T00:12:53.220Z,19.7
2015-09-11T00:17:55.260Z,19.7
2015-09-11T00:22:57.333Z,19.7
2015-09-11T00:27:59.562Z,19.7
2015-09-11T00:33:01.867Z,19.7
2015-09-11T00:38:04.112Z,19.7
2015-09-11T00:43:06.907Z,19.7
2015-09-11T00:48:08.227Z,19.7
2015-09-11T00:53:11.050Z,19.7
2015-09-11T00:58:14.232Z,19.7
2015-09-11T01:03:17.539Z,19.7
2015-09-11T01:08:19.735Z,19.7
2015-09-11T01:13:21.980Z,19.7
2015-09-11T01:18:25.661Z,19.7
2015-09-11T01:22:22.998Z,19.7
2015-09-11T01:27:25.836Z,19.7
2015-09-11T01:32:27.580Z,19.7
2015-09-11T01:37:31.614Z,19.7
2015-09-11T01:42:33.696Z,19.7
2015-09-11T01:47:35.451Z,19.7
2015-09-11T01:52:38.569Z,19.7
2015-09-11T01:57:41.494Z,19.7
2015-09-11T02:02:43.180Z,19.7
2015-09-11T02:07:45.628Z,19.7
2015-09-11T02:12:48.685Z,19.7
2015-09-11T02:17:49.930Z,19.7
2015-09-11T02:22:53.986Z,19.7
2015-09-11T02:27:55.496Z,19.7
2015-09-11T02:32:57.240Z,19.7
2015-09-11T02:34:43.369Z,19.7
2015-09-11T02:39:46.987Z,19.7
2015-09-11T02:44:48.745Z,19.7
2015-09-11T02:49:51.865Z,19.7
2015-09-11T02:54:54.453Z,19.7
2015-09-11T02:59:56.213Z,19.7
2015-09-11T03:04:58.378Z,19.7
2015-09-11T03:10:01.280Z,19.6
2015-09-11T03:15:02.929Z,19.6
2015-09-11T03:20:05.236Z,19.6
2015-09-11T03:25:07.855Z,19.6
2015-09-11T03:30:12.990Z,19.6
2015-09-11T03:35:13.734Z,19.6
2015-09-11T03:40:16.588Z,19.6
2015-09-11T03:45:18.285Z,19.6
2015-09-11T03:50:20.529Z,19.6
2015-09-11T03:55:22.820Z,19.6
2015-09-11T04:00:24.628Z,19.6
2015-09-11T04:05:27.308Z,19.6
2015-09-11T04:10:29.723Z,19.6
2015-09-11T04:15:32.233Z,19.6
2015-09-11T04:20:33.727Z,19.6
2015-09-11T04:25:36.455Z,19.6
2015-09-11T04:30:39.340Z,19.6
2015-09-11T04:35:41.085Z,19.6
2015-09-11T04:40:43.344Z,19.5
2015-09-11T04:45:45.573Z,19.6
2015-09-11T04:50:47.910Z,19.6
2015-09-11T04:55:51.170Z,19.6
2015-09-11T05:00:52.930Z,19.6
2015-09-11T05:05:57.315Z,19.6
2015-09-11T05:10:59.621Z,19.6
2015-09-11T05:16:01.865Z,19.6
2015-09-11T05:21:04.203Z,19.6
2015-09-11T05:26:06.505Z,19.6
2015-09-11T05:31:08.703Z,19.6
2015-09-11T05:36:10.977Z,19.6
2015-09-11T05:41:12.782Z,19.6
2015-09-11T05:46:16.292Z,19.6
2015-09-11T05:51:17.833Z,19.6
2015-09-11T05:56:20.058Z,19.6
2015-09-11T06:01:22.317Z,19.6
2015-09-11T06:06:24.578Z,19.6
2015-09-11T06:11:26.869Z,19.6
2015-09-11T06:16:29.160Z,19.5
2015-09-11T06:21:31.436Z,19.5
2015-09-11T06:26:33.305Z,19.5
2015-09-11T06:31:36.298Z,19.5
2015-09-11T06:36:39.511Z,19.5
2015-09-11T06:41:40.506Z,19.6
2015-09-11T06:46:42.796Z,19.5
2015-09-11T06:51:46.416Z,19.5
2015-09-11T06:56:47.314Z,19.5
2015-09-11T07:01:49.621Z,19.6
2015-09-11T07:06:51.897Z,19.6
2015-09-11T07:11:54.203Z,19.6
2015-09-11T07:13:16.206Z,19.6
2015-09-11T07:18:19.201Z,19.6
2015-09-11T07:23:20.882Z,19.6
2015-09-11T07:28:23.109Z,19.6
2015-09-11T07:33:25.463Z,19.6
2015-09-11T07:38:28.207Z,19.6
2015-09-11T07:43:29.968Z,19.6
2015-09-11T07:48:32.273Z,19.6
2015-09-11T07:53:34.908Z,19.6
2015-09-11T07:58:37.607Z,19.6
2015-09-11T08:03:39.522Z,19.7
2015-09-11T08:08:41.235Z,19.6
2015-09-11T08:13:45.402Z,19.7
2015-09-11T08:18:46.287Z,19.7
2015-09-11T08:23:48.092Z,19.7
2015-09-11T08:28:50.429Z,19.7
2015-09-11T08:33:53.751Z,19.8
2015-09-11T08:38:55.479Z,19.8
2015-09-11T08:43:57.708Z,19.8
2015-09-11T08:49:00.311Z,19.8
2015-09-11T08:54:02.384Z,19.8
2015-09-11T08:59:04.706Z,19.8
2015-09-11T09:04:06.981Z,19.8
2015-09-11T09:09:09.241Z,19.8
2015-09-11T09:14:11.954Z,19.8
2015-09-11T09:19:13.730Z,19.8
2015-09-11T09:24:15.630Z,19.8
2015-09-11T09:29:18.687Z,19.8
2015-09-11T09:34:20.977Z,19.9
2015-09-11T09:39:22.940Z,19.8
2015-09-11T09:44:25.152Z,19.9
2015-09-11T09:49:27.427Z,19.9
2015-09-11T09:54:29.750Z,19.9
2015-09-11T09:59:32.838Z,19.9
2015-09-11T10:04:34.645Z,19.9
2015-09-11T10:09:38.576Z,19.9
2015-09-11T10:14:40.070Z,19.9
2015-09-11T10:19:41.971Z,19.9
2015-09-11T10:24:44.246Z,19.9
2015-09-11T10:29:46.599Z,20
2015-09-11T10:34:48.812Z,20
2015-09-11T10:39:51.103Z,20
2015-09-11T10:44:53.430Z,20
2015-09-11T10:49:56.265Z,20
2015-09-11T10:54:58.907Z,20.1
2015-09-11T11:00:00.937Z,20.1
2015-09-11T11:05:02.876Z,20.1
2015-09-11T11:10:05.198Z,20.1
2015-09-11T11:15:08.364Z,20.1
2015-09-11T11:20:10.592Z,20.1
2015-09-11T11:25:12.883Z,20.1
2015-09-11T11:30:15.752Z,20.1
2015-09-11T11:35:19.028Z,20.1
2015-09-11T11:40:19.616Z,20.1
2015-09-11T11:45:21.985Z,20.1
2015-09-11T11:50:24.323Z,20.1
2015-09-11T11:55:26.552Z,20.2
2015-09-11T12:00:28.842Z,20.2
2015-09-11T12:05:31.180Z,20.2
2015-09-11T12:10:33.425Z,20.2
2015-09-11T12:15:36.200Z,20.2
2015-09-11T12:20:40.100Z,20.2
2015-09-11T12:25:41.249Z,20.2
2015-09-11T12:30:43.556Z,20.2
2015-09-11T12:35:45.769Z,20.2
2015-09-11T12:40:47.966Z,20.2
2015-09-11T12:45:50.241Z,20.2
2015-09-11T12:50:52.548Z,20.2
2015-09-11T12:55:54.792Z,20.2
2015-09-11T13:00:56.567Z,20.2
2015-09-11T13:06:00.093Z,20.3
2015-09-11T13:11:03.040Z,20.2
2015-09-11T13:16:04.690Z,20.3
2015-09-11T13:21:06.935Z,20.3
2015-09-11T13:26:09.226Z,20.3
2015-09-11T13:31:11.501Z,20.3
2015-09-11T13:36:13.808Z,20.3
2015-09-11T13:41:16.114Z,20.3
2015-09-11T13:46:17.920Z,20.4
2015-09-11T13:51:21.710Z,20.4
2015-09-11T13:56:22.877Z,20.4
2015-09-11T14:01:25.699Z,20.4
2015-09-11T14:06:27.428Z,20.3
2015-09-11T14:11:29.703Z,20.3
2015-09-11T14:16:31.978Z,20.3
2015-09-11T14:21:34.285Z,20.3
2015-09-11T14:26:36.576Z,20.3
2015-09-11T14:31:38.695Z,20.3
2015-09-11T14:36:42.674Z,20.4
2015-09-11T14:41:44.293Z,20.4
2015-09-11T14:46:46.600Z,20.4
2015-09-11T14:51:48.937Z,20.4
2015-09-11T14:56:51.212Z,20.4
2015-09-11T15:01:53.488Z,20.4
2015-09-11T15:06:55.764Z,20.4
2015-09-11T15:11:58.052Z,20.4
2015-09-11T15:16:59.875Z,20.4
2015-09-11T15:22:03.041Z,20.4
2015-09-11T15:27:05.864Z,20.4
2015-09-11T15:32:07.201Z,20.4
2015-09-11T15:37:09.492Z,20.4
2015-09-11T15:42:11.768Z,20.5
2015-09-11T15:47:14.027Z,20.5
2015-09-11T15:52:16.324Z,20.4
2015-09-11T15:57:18.380Z,20.4
2015-09-11T16:02:20.406Z,20.4
2015-09-11T16:07:23.119Z,20.5
2015-09-11T16:12:25.362Z,20.5
2015-09-11T16:17:27.622Z,20.5
2015-09-11T16:22:29.896Z,20.4
2015-09-11T16:27:32.267Z,20.4
2015-09-11T16:32:34.463Z,20.4
2015-09-11T16:37:36.753Z,20.4
2015-09-11T16:42:38.513Z,20.4
2015-09-11T16:47:42.694Z,20.4
2015-09-11T16:52:43.595Z,20.4
2015-09-11T16:57:45.980Z,20.4
2015-09-11T17:02:47.725Z,20.4
2015-09-11T17:07:50.468Z,20.4
2015-09-11T17:12:52.791Z,20.4
2015-09-11T17:17:55.910Z,20.4
2015-09-11T17:22:58.623Z,20.4
2015-09-11T17:28:00.008Z,20.3
2015-09-11T17:33:02.720Z,20.3
2015-09-11T17:38:05.605Z,20.3
2015-09-11T17:43:07.271Z,20.3
2015-09-11T17:48:09.610Z,20.2
2015-09-11T17:53:11.774Z,20.2
2015-09-11T17:58:14.502Z,20.2
2015-09-11T18:03:16.355Z,20.2
2015-09-11T18:08:18.381Z,20.2
2015-09-11T18:13:22.265Z,20.2
2015-09-11T18:18:23.119Z,20.2
2015-09-11T18:23:24.988Z,20.2
2015-09-11T18:28:27.779Z,20.2
2015-09-11T18:33:30.680Z,20.2
2015-09-11T18:38:32.253Z,20.2
2015-09-11T18:43:34.559Z,20.2
2015-09-11T18:48:36.803Z,20.2
2015-09-11T18:53:39.627Z,20.2
2015-09-11T18:58:41.387Z,20.2
2015-09-11T19:03:44.912Z,20.2
2015-09-11T19:08:47.250Z,20.2
2015-09-11T19:13:48.289Z,20.1
2015-09-11T19:18:50.564Z,20.1
2015-09-11T19:23:54.231Z,20.1
2015-09-11T19:28:55.132Z,20.1
2015-09-11T19:33:57.782Z,20.1
2015-09-11T19:38:59.729Z,20.1
2015-09-11T19:44:01.505Z,20.1
2015-09-11T19:49:05.515Z,20.1
2015-09-11T19:54:07.079Z,20.1
2015-09-11T19:59:09.736Z,20.1
2015-09-11T20:04:12.270Z,20.1
2015-09-11T20:09:14.523Z,20.1
2015-09-11T20:14:16.878Z,20.1
2015-09-11T20:19:19.092Z,20.1
2015-09-11T20:24:21.384Z,20
2015-09-11T20:29:23.189Z,20
2015-09-11T20:34:27.746Z,20
2015-09-11T20:39:29.007Z,20
2015-09-11T20:44:31.454Z,20
2015-09-11T20:49:33.651Z,20
2015-09-11T20:54:36.753Z,20
2015-09-11T20:59:39.029Z,20
2015-09-11T21:04:42.131Z,20
2015-09-11T21:09:43.907Z,19.9
2015-09-11T21:14:47.776Z,19.9
2015-09-11T21:19:48.866Z,19.9
2015-09-11T21:24:51.203Z,19.9
2015-09-11T21:29:53.448Z,19.9
2015-09-11T21:34:55.862Z,19.9
2015-09-11T21:39:58.153Z,19.9
2015-09-11T21:45:00.334Z,19.9
2015-09-11T21:50:02.626Z,19.9
2015-09-11T21:55:04.979Z,19.9
2015-09-11T22:00:08.489Z,19.9
2015-09-11T22:05:10.421Z,19.9
2015-09-11T22:10:12.759Z,19.9
2015-09-11T22:15:14.956Z,19.8
2015-09-11T22:20:17.262Z,19.8
2015-09-11T22:25:19.522Z,19.8
2015-09-11T22:30:21.718Z,19.8
2015-09-11T22:35:24.010Z,19.8
2015-09-11T22:40:25.785Z,19.8
2015-09-11T22:45:29.670Z,19.8
2015-09-11T22:50:30.836Z,19.8
2015-09-11T22:55:33.659Z,19.8
2015-09-11T23:00:35.418Z,19.8
2015-09-11T23:05:37.677Z,19.8
2015-09-11T23:10:40.032Z,19.8
2015-09-11T23:15:41.853Z,19.8
2015-09-11T23:20:44.582Z,19.8
2015-09-11T23:25:46.451Z,19.8
2015-09-11T23:30:41.319Z,19.8
2015-09-11T23:35:44.219Z,19.8
2015-09-11T23:40:45.994Z,19.8
2015-09-11T23:45:49.536Z,19.7
2015-09-11T23:50:51.936Z,19.8
2015-09-11T23:55:54.073Z,19.7
